Time;durP1;ratioP1;P1;durP2;ratioP2;P2;SDS_P1;SDS_P2;PMS_P1;PMS_P2;Temp;Humidity;BMP_temperature;BMP_pressure;BME280_temperature;BME280_humidity;BME280_pressure;Samples;Min_cycle;Max_cycle;Signal;HPM_P1;HPM_P2
2021/08/11 00:01:00;;;;;;;11.05;6.40;;;23.90;80.30;;;;;;5113960;28;20407;-52
2021/08/11 00:03:27;;;;;;;11.05;6.00;;;23.90;81.40;;;;;;5112881;28;20071;-52
2021/08/11 00:05:53;;;;;;;9.68;6.03;;;23.90;80.80;;;;;;5112971;28;20049;-52
2021/08/11 00:08:20;;;;;;;10.90;6.20;;;23.90;80.80;;;;;;5113351;28;20042;-51
2021/08/11 00:10:47;;;;;;;8.15;5.95;;;23.90;80.50;;;;;;5112859;28;20032;-52
2021/08/11 00:13:14;;;;;;;7.70;5.88;;;23.90;80.90;;;;;;5113777;28;20038;-52
2021/08/11 00:15:40;;;;;;;7.50;5.50;;;23.80;80.90;;;;;;5113493;28;20038;-54
2021/08/11 00:18:06;;;;;;;6.07;5.43;;;23.80;80.80;;;;;;5112468;28;20039;-55
2021/08/11 00:20:35;;;;;;;7.43;5.30;;;23.80;80.60;;;;;;5113233;28;20043;-52
2021/08/11 00:23:02;;;;;;;7.65;5.18;;;23.80;80.60;;;;;;5113245;28;20487;-58
2021/08/11 00:25:29;;;;;;;7.60;5.82;;;23.80;80.60;;;;;;5113201;28;20047;-51
2021/08/11 00:27:55;;;;;;;7.22;5.97;;;23.80;80.60;;;;;;5113426;28;20032;-55
2021/08/11 00:30:22;;;;;;;9.35;5.40;;;23.70;80.80;;;;;;5112531;28;20044;-55
2021/08/11 00:32:48;;;;;;;8.88;6.85;;;23.70;80.90;;;;;;5111664;28;20054;-53
2021/08/11 00:35:21;;;;;;;7.82;5.82;;;23.70;81.00;;;;;;5112187;28;20020;-50
2021/08/11 00:37:50;;;;;;;7.97;5.82;;;23.70;81.00;;;;;;5112024;28;20341;-52
2021/08/11 00:40:22;;;;;;;10.40;5.82;;;23.70;81.20;;;;;;5110381;28;20040;-53
2021/08/11 00:42:50;;;;;;;6.97;5.57;;;23.70;81.30;;;;;;5113223;28;20416;-56
2021/08/11 00:45:17;;;;;;;8.13;5.93;;;23.60;81.50;;;;;;5111845;28;20039;-54
2021/08/11 00:47:49;;;;;;;6.30;5.05;;;23.60;81.90;;;;;;5112039;28;20039;-50
2021/08/11 00:50:18;;;;;;;9.15;6.38;;;23.60;81.80;;;;;;5111829;28;20040;-55
2021/08/11 00:52:47;;;;;;;8.60;5.93;;;23.60;81.80;;;;;;5111258;28;20050;-52
2021/08/11 00:55:18;;;;;;;6.50;5.47;;;23.50;82.00;;;;;;5110741;28;20044;-54
2021/08/11 00:57:48;;;;;;;7.13;5.18;;;23.50;82.10;;;;;;5111602;28;20364;-53
2021/08/11 01:00:20;;;;;;;7.25;5.90;;;23.50;81.80;;;;;;5110748;28;20152;-55
2021/08/11 01:02:48;;;;;;;9.50;5.72;;;23.60;81.70;;;;;;5111639;28;20424;-53
2021/08/11 01:05:19;;;;;;;8.70;5.80;;;23.60;81.60;;;;;;5112006;28;20020;-51
2021/08/11 01:07:48;;;;;;;8.40;6.15;;;23.60;81.90;;;;;;5094374;28;20041;-53
2021/08/11 01:10:17;;;;;;;;;;;23.60;81.80;;;;;;5112094;28;20028;-54
2021/08/11 01:12:43;;;;;;;6.60;5.55;;;23.60;81.80;;;;;;5110946;28;19915;-55
2021/08/11 01:15:10;;;;;;;7.75;5.32;;;23.60;81.70;;;;;;5111549;28;20036;-54
2021/08/11 01:17:47;;;;;;;5.85;5.18;;;23.60;81.80;;;;;;5112195;28;20035;-53
2021/08/11 01:20:14;;;;;;;13.05;5.70;;;23.60;82.20;;;;;;5111816;28;20024;-54
2021/08/11 01:22:50;;;;;;;7.32;6.38;;;23.50;82.20;;;;;;5113982;28;20079;-53
2021/08/11 01:25:41;;;;;;;9.07;5.68;;;23.50;82.30;;;;;;5116059;28;20039;-52
2021/08/11 01:28:33;;;;;;;7.13;5.85;;;23.50;82.60;;;;;;5115601;28;20031;-51
2021/08/11 01:31:16;;;;;;;9.57;6.28;;;23.50;82.50;;;;;;5114595;28;20044;-58
2021/08/11 01:34:15;;;;;;;7.68;6.38;;;23.50;82.30;;;;;;5115565;28;20063;-56
2021/08/11 01:36:58;;;;;;;11.50;5.85;;;23.60;82.10;;;;;;5110240;28;20043;-54
2021/08/11 01:39:35;;;;;;;8.93;6.00;;;23.60;81.70;;;;;;5114803;28;20028;-50
2021/08/11 01:42:19;;;;;;;8.48;6.40;;;23.60;80.50;;;;;;5115885;28;20043;-51
2021/08/11 01:44:50;;;;;;;10.07;5.90;;;23.60;79.50;;;;;;5115269;28;20043;-53
2021/08/11 01:47:22;;;;;;;9.20;5.30;;;23.60;77.50;;;;;;5115513;28;20376;-53
2021/08/11 01:49:49;;;;;;;9.30;6.15;;;23.60;76.90;;;;;;5114962;28;20050;-54
2021/08/11 01:52:17;;;;;;;7.88;5.85;;;23.70;76.90;;;;;;5115202;28;20031;-52
2021/08/11 01:54:45;;;;;;;7.55;5.47;;;23.70;76.90;;;;;;5115148;28;20039;-54
2021/08/11 01:57:14;;;;;;;9.93;5.40;;;23.70;76.90;;;;;;5115239;28;20375;-53
2021/08/11 01:59:42;;;;;;;6.63;4.90;;;23.70;76.80;;;;;;5114694;28;20387;-52
2021/08/11 02:02:13;;;;;;;6.07;5.20;;;23.70;76.70;;;;;;5115002;28;20418;-53
2021/08/11 02:04:40;;;;;;;8.00;5.65;;;23.70;76.90;;;;;;5116179;28;20063;-54
2021/08/11 02:07:07;;;;;;;7.55;5.40;;;23.70;77.10;;;;;;5115018;28;20502;-53
2021/08/11 02:09:36;;;;;;;7.05;5.60;;;23.70;77.40;;;;;;5114963;28;20031;-52
2021/08/11 02:12:04;;;;;;;7.38;5.60;;;23.70;77.70;;;;;;5114481;28;20027;-54
2021/08/11 02:14:31;;;;;;;5.95;5.22;;;23.70;78.10;;;;;;5114813;28;20035;-54
2021/08/11 02:16:59;;;;;;;7.57;5.97;;;23.60;78.50;;;;;;5114274;28;20039;-55
2021/08/11 02:19:27;;;;;;;6.90;5.97;;;23.60;78.80;;;;;;5115952;28;20031;-53
2021/08/11 02:21:53;;;;;;;9.63;5.95;;;23.50;79.10;;;;;;5115708;28;20379;-54
2021/08/11 02:24:22;;;;;;;9.45;5.50;;;23.50;79.20;;;;;;5114450;28;20039;-54
2021/08/11 02:27:03;;;;;;;10.57;6.28;;;23.50;79.50;;;;;;5114374;28;20039;-52
2021/08/11 02:30:13;;;;;;;8.60;6.18;;;23.40;79.80;;;;;;5114319;28;20043;-52
2021/08/11 02:32:50;;;;;;;8.27;6.32;;;23.40;80.20;;;;;;5112166;28;20050;-54
2021/08/11 02:35:26;;;;;;;6.95;6.00;;;23.40;80.20;;;;;;5114146;28;20468;-54
2021/08/11 02:38:03;;;;;;;7.28;5.22;;;23.40;80.20;;;;;;5113693;28;20035;-53
2021/08/11 02:41:02;;;;;;;7.38;5.45;;;23.40;80.40;;;;;;5114497;28;20463;-54
2021/08/11 02:43:37;;;;;;;11.10;7.15;;;23.30;80.40;;;;;;5112818;28;20396;-54
2021/08/11 02:46:19;;;;;;;8.57;6.30;;;23.30;80.50;;;;;;5113934;28;20055;-54
2021/08/11 02:48:53;;;;;;;9.55;5.90;;;23.30;80.70;;;;;;5115356;28;20487;-54
2021/08/11 02:51:22;;;;;;;9.20;5.55;;;23.30;80.60;;;;;;5114716;28;20054;-54
2021/08/11 02:53:49;;;;;;;6.88;5.63;;;23.20;80.60;;;;;;5113838;28;20047;-56
2021/08/11 02:56:16;;;;;;;9.55;6.45;;;23.20;80.80;;;;;;5096806;28;20062;-52
2021/08/11 02:58:43;;;;;;;6.90;6.03;;;23.20;81.00;;;;;;5114719;28;20464;-54
2021/08/11 03:01:10;;;;;;;8.43;6.00;;;23.20;81.00;;;;;;5115361;28;20035;-53
2021/08/11 03:03:37;;;;;;;7.80;5.65;;;23.20;81.20;;;;;;5113267;28;20051;-51
2021/08/11 03:06:04;;;;;;;8.32;6.35;;;23.10;81.50;;;;;;5113897;28;20024;-54
2021/08/11 03:08:31;;;;;;;6.80;5.60;;;23.10;81.50;;;;;;5113261;28;20383;-55
2021/08/11 03:10:58;;;;;;;8.18;5.47;;;23.10;81.40;;;;;;5113746;28;20024;-53
2021/08/11 03:13:25;;;;;;;8.55;5.22;;;23.10;81.60;;;;;;5113361;28;20036;-54
2021/08/11 03:15:52;;;;;;;7.07;5.68;;;23.00;81.80;;;;;;5113795;28;20042;-54
2021/08/11 03:18:19;;;;;;;6.07;5.45;;;23.00;81.90;;;;;;5113870;28;20035;-49
2021/08/11 03:20:48;;;;;;;7.30;6.35;;;22.90;81.90;;;;;;5113395;28;20369;-51
2021/08/11 03:23:15;;;;;;;7.50;5.80;;;22.90;82.40;;;;;;5113399;28;20027;-52
2021/08/11 03:25:42;;;;;;;6.82;5.57;;;22.90;82.40;;;;;;5113138;28;20036;-53
2021/08/11 03:28:10;;;;;;;8.57;5.75;;;22.90;82.10;;;;;;5113310;28;20038;-53
2021/08/11 03:30:37;;;;;;;8.27;5.85;;;22.90;82.40;;;;;;5112913;28;20031;-53
2021/08/11 03:33:04;;;;;;;7.13;5.60;;;22.90;82.30;;;;;;5113349;28;20287;-50
2021/08/11 03:35:31;;;;;;;6.50;5.85;;;22.80;82.20;;;;;;5113070;28;20471;-52
2021/08/11 03:37:58;;;;;;;6.80;5.90;;;22.80;82.30;;;;;;5112901;28;20030;-53
2021/08/11 03:40:25;;;;;;;10.38;6.13;;;22.80;82.60;;;;;;5112535;28;20051;-55
2021/08/11 03:42:51;;;;;;;6.70;5.57;;;22.70;82.80;;;;;;5114516;28;20031;-52
2021/08/11 03:45:20;;;;;;;6.40;5.05;;;22.70;82.90;;;;;;5113096;28;20040;-56
2021/08/11 03:47:47;;;;;;;9.02;5.82;;;22.70;83.00;;;;;;5113814;28;20024;-51
2021/08/11 03:50:15;;;;;;;6.88;5.45;;;22.60;83.20;;;;;;5113089;28;20494;-55
2021/08/11 03:52:45;;;;;;;7.82;5.82;;;22.60;83.40;;;;;;5113969;28;20031;-55
2021/08/11 03:55:14;;;;;;;7.93;6.47;;;22.60;83.30;;;;;;5112766;28;20032;-55
2021/08/11 03:57:41;;;;;;;8.93;5.72;;;22.60;83.50;;;;;;5112780;28;20031;-54
2021/08/11 04:00:09;;;;;;;9.07;5.97;;;22.60;83.60;;;;;;5112860;28;20031;-55
2021/08/11 04:02:41;;;;;;;8.40;5.60;;;22.60;83.60;;;;;;5113744;28;20036;-55
2021/08/11 04:05:08;;;;;;;7.53;5.15;;;22.60;83.50;;;;;;5113737;28;20380;-50
2021/08/11 04:07:35;;;;;;;10.00;6.43;;;22.60;83.60;;;;;;5113132;28;20027;-53
2021/08/11 04:10:08;;;;;;;9.07;5.68;;;22.50;83.70;;;;;;5113839;28;20035;-54
2021/08/11 04:12:35;;;;;;;7.68;6.07;;;22.50;83.90;;;;;;5113264;28;20055;-52
2021/08/11 04:15:01;;;;;;;9.27;5.60;;;22.50;84.10;;;;;;5112464;28;20036;-51
2021/08/11 04:17:28;;;;;;;11.48;7.85;;;22.50;84.20;;;;;;5112874;28;20047;-53
2021/08/11 04:19:54;;;;;;;9.05;5.45;;;22.50;84.30;;;;;;5112381;28;20028;-51
2021/08/11 04:22:21;;;;;;;9.18;5.55;;;22.50;84.60;;;;;;5112035;28;20070;-52
2021/08/11 04:24:49;;;;;;;8.13;5.72;;;22.50;84.60;;;;;;5112471;28;20435;-54
2021/08/11 04:27:15;;;;;;;8.15;6.55;;;22.50;84.50;;;;;;5113862;28;20035;-50
2021/08/11 04:29:42;;;;;;;10.38;6.35;;;22.50;84.40;;;;;;5113270;28;20376;-53
2021/08/11 04:32:08;;;;;;;9.00;6.22;;;22.40;84.60;;;;;;5113547;28;20050;-53
2021/08/11 04:34:34;;;;;;;6.65;5.68;;;22.30;84.70;;;;;;5112951;28;20032;-52
2021/08/11 04:37:01;;;;;;;8.13;5.43;;;22.40;84.70;;;;;;5113543;28;20032;-55
2021/08/11 04:39:27;;;;;;;9.02;6.47;;;22.40;84.80;;;;;;5112759;28;20032;-51
2021/08/11 04:41:54;;;;;;;9.20;6.43;;;22.40;85.10;;;;;;5113377;28;20041;-50
2021/08/11 04:44:20;;;;;;;8.38;6.43;;;22.40;85.00;;;;;;5113068;28;20047;-54
2021/08/11 04:46:47;;;;;;;8.15;5.88;;;22.40;85.00;;;;;;5113516;28;20038;-54
2021/08/11 04:49:13;;;;;;;8.15;5.90;;;22.40;85.10;;;;;;5112780;28;20989;-55
2021/08/11 04:51:39;;;;;;;8.32;5.32;;;22.40;85.30;;;;;;5113290;28;20036;-53
2021/08/11 04:54:06;;;;;;;7.80;5.72;;;22.40;85.00;;;;;;5113186;28;20384;-53
2021/08/11 04:56:32;;;;;;;7.57;5.47;;;22.50;84.60;;;;;;5112479;28;20050;-52
2021/08/11 04:58:59;;;;;;;6.75;5.90;;;22.50;84.60;;;;;;5112932;28;20031;-54
2021/08/11 05:01:26;;;;;;;8.98;6.20;;;22.40;84.80;;;;;;5112835;28;20055;-54
2021/08/11 05:03:52;;;;;;;7.63;5.93;;;22.40;84.70;;;;;;5112802;28;20387;-53
2021/08/11 05:06:19;;;;;;;8.82;6.03;;;22.40;84.70;;;;;;5113273;28;20035;-55
2021/08/11 05:08:45;;;;;;;10.68;6.47;;;22.50;84.50;;;;;;5112961;28;20024;-53
2021/08/11 05:11:12;;;;;;;9.38;5.55;;;22.40;84.90;;;;;;5112518;28;20050;-53
2021/08/11 05:13:38;;;;;;;6.68;5.45;;;22.50;85.00;;;;;;5113049;28;20459;-54
2021/08/11 05:16:05;;;;;;;10.15;6.55;;;22.50;84.70;;;;;;5112747;28;20028;-51
2021/08/11 05:18:31;;;;;;;7.65;5.97;;;22.60;85.00;;;;;;5112743;28;20031;-55
2021/08/11 05:20:58;;;;;;;7.47;6.22;;;22.50;85.20;;;;;;5112785;28;20034;-54
2021/08/11 05:23:26;;;;;;;10.35;5.68;;;22.60;85.50;;;;;;5112937;28;20027;-53
2021/08/11 05:25:52;;;;;;;8.00;6.65;;;22.60;85.30;;;;;;5112747;28;20031;-56
2021/08/11 05:28:19;;;;;;;10.07;6.15;;;22.60;85.40;;;;;;5112092;28;20468;-53
2021/08/11 05:30:45;;;;;;;9.32;5.90;;;22.70;85.60;;;;;;5112070;28;20161;-56
2021/08/11 05:33:12;;;;;;;10.02;6.57;;;22.70;85.90;;;;;;5111615;28;20181;-55
2021/08/11 05:35:38;;;;;;;7.70;5.78;;;22.70;85.10;;;;;;5112803;28;20032;-52
2021/08/11 05:38:05;;;;;;;9.20;6.10;;;22.80;85.00;;;;;;5112270;28;20454;-55
2021/08/11 05:40:32;;;;;;;11.50;6.25;;;22.80;84.80;;;;;;5112019;28;20048;-53
2021/08/11 05:42:59;;;;;;;8.45;6.18;;;22.80;84.90;;;;;;5112254;28;20024;-48
2021/08/11 05:45:25;;;;;;;8.68;5.95;;;22.80;85.10;;;;;;5112180;28;20032;-52
2021/08/11 05:47:52;;;;;;;9.00;5.55;;;22.80;85.00;;;;;;5111402;28;20042;-55
2021/08/11 05:50:18;;;;;;;8.45;5.75;;;22.90;85.40;;;;;;5112578;28;20065;-52
2021/08/11 05:52:46;;;;;;;10.77;6.50;;;22.80;85.80;;;;;;5112190;28;20037;-53
2021/08/11 05:55:13;;;;;;;11.85;6.22;;;22.90;85.80;;;;;;5112206;28;20023;-54
2021/08/11 05:57:40;;;;;;;10.10;7.15;;;22.90;85.50;;;;;;5112409;28;20035;-55
2021/08/11 06:00:09;;;;;;;8.25;6.78;;;22.90;85.70;;;;;;5112098;28;20058;-50
2021/08/11 06:02:42;;;;;;;11.80;5.82;;;23.00;85.80;;;;;;5112556;28;20364;-53
2021/08/11 06:05:27;;;;;;;11.00;6.30;;;23.00;86.10;;;;;;5111983;28;20043;-55
2021/08/11 06:07:54;;;;;;;10.32;6.45;;;23.10;86.00;;;;;;5111637;28;20024;-55
2021/08/11 06:10:20;;;;;;;10.73;6.60;;;23.10;85.20;;;;;;5113284;28;20051;-51
2021/08/11 06:12:51;;;;;;;8.00;5.72;;;23.20;84.40;;;;;;5114403;28;20503;-55
2021/08/11 06:15:18;;;;;;;8.10;6.50;;;23.30;83.70;;;;;;5113591;28;20036;-54
2021/08/11 06:17:47;;;;;;;8.15;5.88;;;23.30;83.10;;;;;;5114490;28;20042;-55
2021/08/11 06:20:15;;;;;;;6.63;5.50;;;24.60;77.80;;;;;;5114040;28;20028;-55
2021/08/11 06:22:42;;;;;;;9.13;5.70;;;26.20;69.60;;;;;;5114112;28;20023;-57
2021/08/11 06:25:10;;;;;;;7.63;5.25;;;27.40;64.40;;;;;;5113186;28;20125;-58
2021/08/11 06:27:37;;;;;;;11.43;6.97;;;28.10;60.60;;;;;;5113840;28;20043;-54
2021/08/11 06:30:04;;;;;;;10.85;6.10;;;27.20;62.80;;;;;;5114021;28;20468;-51
2021/08/11 06:32:31;;;;;;;9.38;5.63;;;27.00;65.00;;;;;;5113962;28;20514;-53
2021/08/11 06:34:57;;;;;;;12.05;8.55;;;26.90;63.60;;;;;;5113794;28;20034;-58
2021/08/11 06:37:24;;;;;;;10.07;6.43;;;26.20;66.70;;;;;;5113897;28;20407;-52
2021/08/11 06:39:50;;;;;;;13.07;7.10;;;25.70;69.40;;;;;;5113645;28;20050;-50
2021/08/11 06:42:17;;;;;;;7.88;5.55;;;25.50;70.80;;;;;;5113003;28;20055;-55
2021/08/11 06:44:59;;;;;;;9.63;6.35;;;25.30;72.10;;;;;;5113886;28;20492;-54
2021/08/11 06:47:26;;;;;;;10.52;6.25;;;25.20;73.00;;;;;;5113340;28;20040;-58
2021/08/11 06:49:52;;;;;;;14.27;6.80;;;25.20;73.00;;;;;;5114010;28;20051;-51
2021/08/11 06:52:19;;;;;;;8.77;5.57;;;25.30;72.90;;;;;;5114735;28;20416;-53
2021/08/11 06:54:45;;;;;;;9.38;6.78;;;25.30;72.70;;;;;;5115262;28;20036;-51
2021/08/11 06:57:12;;;;;;;9.27;5.95;;;25.40;72.30;;;;;;5114794;27;20114;-55
2021/08/11 06:59:38;;;;;;;9.50;6.38;;;25.50;71.80;;;;;;5113266;28;20035;-56
2021/08/11 07:02:05;;;;;;;11.40;5.97;;;25.60;70.70;;;;;;5113824;28;20353;-53
2021/08/11 07:04:32;;;;;;;8.77;5.22;;;25.60;69.70;;;;;;5114851;27;20051;-53
2021/08/11 07:06:58;;;;;;;12.65;5.70;;;25.70;69.40;;;;;;5113635;28;20052;-55
2021/08/11 07:09:25;;;;;;;10.32;5.63;;;25.90;69.40;;;;;;5114882;28;20024;-55
2021/08/11 07:11:51;;;;;;;9.10;5.82;;;25.90;69.20;;;;;;5113221;28;20035;-55
2021/08/11 07:14:18;;;;;;;10.00;5.57;;;26.00;67.50;;;;;;5114435;28;20042;-57
2021/08/11 07:16:44;;;;;;;8.50;5.75;;;26.10;67.30;;;;;;5113987;28;20047;-58
2021/08/11 07:19:11;;;;;;;9.65;5.65;;;26.10;67.60;;;;;;5113896;28;20035;-54
2021/08/11 07:21:37;;;;;;;7.13;5.85;;;26.20;67.90;;;;;;5114455;28;20031;-58
2021/08/11 07:24:04;;;;;;;8.77;6.95;;;26.30;68.40;;;;;;5113521;28;20044;-57
2021/08/11 07:26:30;;;;;;;14.32;6.18;;;26.40;68.20;;;;;;5114597;28;20031;-54
2021/08/11 07:28:57;;;;;;;12.32;6.95;;;26.30;68.50;;;;;;5114231;28;20023;-54
2021/08/11 07:31:23;;;;;;;15.30;6.80;;;26.40;68.10;;;;;;5114264;28;20047;-55
2021/08/11 07:33:50;;;;;;;11.07;8.13;;;26.50;67.60;;;;;;5113425;28;20471;-54
2021/08/11 07:36:16;;;;;;;15.10;7.65;;;26.50;67.50;;;;;;5114187;28;20479;-53
2021/08/11 07:38:43;;;;;;;14.23;6.68;;;26.60;67.30;;;;;;5113812;28;20463;-51
2021/08/11 07:41:09;;;;;;;18.23;10.73;;;26.60;66.80;;;;;;5113811;28;20038;-52
2021/08/11 07:43:36;;;;;;;12.60;9.73;;;26.60;67.30;;;;;;5113825;28;20472;-52
2021/08/11 07:46:03;;;;;;;13.75;9.45;;;26.70;66.70;;;;;;5114154;28;20051;-53
2021/08/11 07:48:29;;;;;;;14.55;9.00;;;26.70;65.50;;;;;;5113980;28;20036;-55
2021/08/11 07:50:55;;;;;;;12.73;8.48;;;26.80;65.20;;;;;;5114015;28;20452;-54
2021/08/11 07:53:22;;;;;;;13.07;7.63;;;26.90;64.40;;;;;;5114165;28;20028;-52
2021/08/11 07:55:48;;;;;;;12.82;6.57;;;26.90;63.20;;;;;;5113692;28;20031;-51
2021/08/11 07:58:15;;;;;;;10.27;7.43;;;26.90;63.50;;;;;;5113749;28;20047;-55
2021/08/11 08:00:41;;;;;;;8.98;6.43;;;27.00;63.60;;;;;;5112726;28;20046;-55
2021/08/11 08:03:08;;;;;;;15.25;6.93;;;27.10;63.30;;;;;;5113655;28;20032;-53
2021/08/11 08:05:35;;;;;;;10.93;5.95;;;27.10;62.80;;;;;;5113688;28;20043;-55
2021/08/11 08:08:02;;;;;;;15.65;7.20;;;27.20;62.80;;;;;;5111874;28;20048;-60
2021/08/11 08:10:28;;;;;;;10.10;5.68;;;27.30;62.60;;;;;;5112829;28;20024;-53
2021/08/11 08:12:54;;;;;;;9.98;6.30;;;27.40;62.20;;;;;;5112628;28;20051;-54
2021/08/11 08:15:23;;;;;;;9.75;5.78;;;27.50;61.50;;;;;;5112450;28;20040;-55
2021/08/11 08:17:50;;;;;;;8.95;6.22;;;27.50;61.30;;;;;;5113332;28;20040;-53
2021/08/11 08:20:17;;;;;;;10.23;5.82;;;27.50;60.90;;;;;;5113319;28;20372;-54
2021/08/11 08:22:47;;;;;;;8.52;6.25;;;27.50;60.90;;;;;;5113354;28;20387;-52
2021/08/11 08:25:20;;;;;;;11.02;6.47;;;27.50;60.90;;;;;;5112317;28;20040;-53
2021/08/11 08:27:49;;;;;;;8.32;6.32;;;27.50;60.90;;;;;;5113141;28;20028;-51
2021/08/11 08:30:17;;;;;;;10.43;5.45;;;27.60;60.80;;;;;;5113071;28;20036;-52
2021/08/11 08:32:44;;;;;;;6.60;5.82;;;27.70;61.00;;;;;;5111095;28;20048;-51
2021/08/11 08:35:11;;;;;;;10.00;6.82;;;27.70;61.00;;;;;;5113314;28;20046;-56
2021/08/11 08:37:39;;;;;;;9.05;6.35;;;27.80;60.90;;;;;;5112776;28;20027;-49
2021/08/11 08:40:13;;;;;;;11.40;6.40;;;27.70;60.70;;;;;;5113188;28;20027;-53
2021/08/11 08:42:41;;;;;;;10.38;6.43;;;27.70;60.70;;;;;;5112688;28;20043;-54
2021/08/11 08:45:09;;;;;;;12.82;6.63;;;27.80;60.60;;;;;;5111876;28;20054;-50
2021/08/11 08:47:37;;;;;;;9.45;6.20;;;27.80;60.40;;;;;;5113000;28;20458;-50
2021/08/11 08:50:08;;;;;;;10.27;6.70;;;27.80;60.40;;;;;;5111768;28;20035;-53
2021/08/11 08:52:35;;;;;;;7.47;6.18;;;27.90;59.90;;;;;;5112904;28;20042;-59
2021/08/11 08:55:03;;;;;;;8.18;6.68;;;27.90;60.00;;;;;;5113105;28;20042;-55
2021/08/11 08:57:30;;;;;;;10.73;6.60;;;28.00;59.90;;;;;;5117326;28;20027;-53
2021/08/11 08:59:57;;;;;;;12.93;6.18;;;28.00;59.60;;;;;;5124616;28;20463;-57
2021/08/11 09:02:25;;;;;;;7.50;6.22;;;28.10;59.80;;;;;;5118991;28;20062;-58
2021/08/11 09:04:51;;;;;;;10.60;6.60;;;28.10;60.20;;;;;;5112671;28;20035;-52
2021/08/11 09:07:20;;;;;;;13.15;6.30;;;28.10;60.30;;;;;;5131280;28;20039;-51
2021/08/11 09:09:47;;;;;;;10.75;6.55;;;28.10;60.30;;;;;;5133092;28;20034;-54
2021/08/11 09:12:16;;;;;;;13.13;6.78;;;28.20;60.10;;;;;;5133541;28;20046;-51
2021/08/11 09:14:45;;;;;;;13.68;6.45;;;28.20;60.00;;;;;;5122540;28;20375;-52
2021/08/11 09:17:32;;;;;;;8.48;6.10;;;28.30;60.70;;;;;;5112915;28;20035;-54
2021/08/11 09:19:59;;;;;;;10.68;6.13;;;28.30;59.80;;;;;;5111997;28;20510;-55
2021/08/11 09:22:26;;;;;;;9.45;6.55;;;28.40;59.30;;;;;;5112057;28;20040;-58
2021/08/11 09:25:07;;;;;;;10.77;6.53;;;28.50;58.90;;;;;;5110407;28;20048;-54
2021/08/11 09:27:42;;;;;;;11.13;6.20;;;28.50;58.80;;;;;;5112205;28;20430;-56
2021/08/11 09:30:15;;;;;;;10.20;6.47;;;28.50;58.60;;;;;;5111561;28;20349;-57
2021/08/11 09:33:04;;;;;;;8.73;6.70;;;28.50;58.80;;;;;;5112188;28;20051;-58
2021/08/11 09:35:32;;;;;;;12.70;8.63;;;28.30;59.50;;;;;;5111838;28;20040;-56
2021/08/11 09:38:01;;;;;;;18.65;11.48;;;28.40;59.60;;;;;;5112453;28;20035;-57
2021/08/11 09:40:32;;;;;;;19.08;13.48;;;28.40;60.10;;;;;;5112030;28;20042;-58
2021/08/11 09:43:08;;;;;;;11.50;8.52;;;28.50;59.80;;;;;;5112833;28;20380;-57
2021/08/11 09:45:56;;;;;;;17.70;14.88;;;28.60;59.80;;;;;;5115985;28;20032;-53
2021/08/11 09:48:25;;;;;;;14.25;10.45;;;28.70;59.50;;;;;;5115624;28;20039;-56
2021/08/11 09:51:00;;;;;;;13.73;11.35;;;28.80;59.40;;;;;;5115295;28;20039;-52
2021/08/11 09:53:27;;;;;;;12.30;9.23;;;28.90;59.10;;;;;;5116538;28;20036;-55
2021/08/11 09:56:04;;;;;;;11.32;7.53;;;28.90;59.30;;;;;;5115671;28;20027;-51
2021/08/11 09:58:38;;;;;;;13.60;7.38;;;28.90;59.40;;;;;;5115664;28;20035;-56
2021/08/11 10:01:25;;;;;;;12.70;7.20;;;29.00;59.00;;;;;;5114656;28;20043;-54
2021/08/11 10:04:02;;;;;;;9.10;6.55;;;29.10;58.80;;;;;;5115649;28;20051;-56
2021/08/11 10:06:34;;;;;;;12.25;7.18;;;29.20;57.90;;;;;;5131334;27;20044;-56
2021/08/11 10:09:11;;;;;;;8.23;6.60;;;29.30;57.80;;;;;;5135597;27;20514;-49
2021/08/11 10:11:40;;;;;;;11.68;7.28;;;29.20;57.50;;;;;;5136390;27;20023;-53
2021/08/11 10:14:11;;;;;;;8.38;7.28;;;29.30;58.10;;;;;;5136506;27;20037;-55
2021/08/11 10:16:38;;;;;;;24.00;8.80;;;29.20;58.10;;;;;;5136077;27;20463;-55
2021/08/11 10:19:07;;;;;;;11.02;7.82;;;29.20;58.00;;;;;;5136701;27;20035;-55
2021/08/11 10:21:59;;;;;;;11.00;7.53;;;29.30;58.00;;;;;;5135321;27;20030;-54
2021/08/11 10:24:28;;;;;;;9.27;5.72;;;29.20;57.10;;;;;;5127131;27;20043;-55
2021/08/11 10:26:55;;;;;;;12.73;6.90;;;29.30;57.60;;;;;;5136214;27;20039;-55
2021/08/11 10:29:24;;;;;;;12.40;6.63;;;29.30;57.20;;;;;;5136110;27;20035;-52
2021/08/11 10:31:51;;;;;;;9.25;6.50;;;29.30;57.50;;;;;;5134430;27;20039;-54
2021/08/11 10:34:18;;;;;;;13.52;6.45;;;29.20;57.40;;;;;;5135524;27;20498;-51
2021/08/11 10:36:46;;;;;;;9.93;6.18;;;29.30;57.30;;;;;;5116934;27;20039;-55
2021/08/11 10:39:14;;;;;;;14.57;6.07;;;29.30;57.60;;;;;;5115073;28;20039;-53
2021/08/11 10:41:41;;;;;;;13.00;6.65;;;29.30;57.70;;;;;;5115221;28;20027;-52
2021/08/11 10:44:25;;;;;;;13.00;7.10;;;29.40;57.40;;;;;;5115408;28;20039;-52
2021/08/11 10:47:00;;;;;;;10.35;6.55;;;29.30;57.00;;;;;;5115345;28;20405;-52
2021/08/11 10:49:28;;;;;;;10.77;6.07;;;29.30;57.00;;;;;;5096722;28;20399;-54
2021/08/11 10:52:00;;;;;;;10.35;7.50;;;29.30;56.70;;;;;;5114718;28;20040;-55
2021/08/11 10:54:27;;;;;;;9.43;6.03;;;29.30;56.60;;;;;;5114201;28;20471;-54
2021/08/11 10:56:55;;;;;;;13.30;6.70;;;29.40;56.50;;;;;;5114579;28;20044;-52
2021/08/11 10:59:21;;;;;;;13.68;6.80;;;29.40;55.90;;;;;;5114381;28;20039;-59
2021/08/11 11:01:52;;;;;;;8.80;6.15;;;29.50;56.40;;;;;;5114232;28;20495;-61
2021/08/11 11:04:41;;;;;;;10.95;6.13;;;29.40;56.80;;;;;;5114152;28;20039;-64
2021/08/11 11:07:11;;;;;;;12.63;6.50;;;29.40;56.60;;;;;;5093797;28;20040;-63
2021/08/11 11:09:39;;;;;;;9.10;5.57;;;29.40;56.50;;;;;;5094063;28;20033;-61
2021/08/11 11:12:18;;;;;;;10.70;6.38;;;29.50;56.40;;;;;;5094196;28;20024;-62
2021/08/11 11:14:57;;;;;;;11.35;6.80;;;29.50;56.10;;;;;;5094098;28;20035;-63
2021/08/11 11:17:25;;;;;;;10.80;6.07;;;29.60;56.60;;;;;;5094379;28;20039;-62
2021/08/11 11:20:10;;;;;;;11.70;7.20;;;29.70;56.90;;;;;;5094183;28;20032;-61
2021/08/11 11:22:50;;;;;;;10.05;7.15;;;29.70;57.00;;;;;;5094100;28;20028;-63
2021/08/11 11:25:18;;;;;;;11.98;7.97;;;29.70;56.80;;;;;;5093642;28;20043;-62
2021/08/11 11:27:50;;;;;;;49.05;10.98;;;29.70;57.10;;;;;;5093332;28;20047;-64
2021/08/11 11:30:25;;;;;;;11.07;8.02;;;29.70;57.30;;;;;;5094199;28;20043;-63
2021/08/11 11:33:24;;;;;;;8.35;6.25;;;29.70;57.10;;;;;;5094167;28;20392;-64
2021/08/11 11:36:22;;;;;;;7.55;5.95;;;29.70;57.10;;;;;;5092353;28;20035;-62
2021/08/11 11:39:10;;;;;;;12.65;6.70;;;29.80;56.90;;;;;;5093248;28;20032;-63
2021/08/11 11:41:38;;;;;;;7.97;5.65;;;29.90;56.40;;;;;;5092125;28;20028;-64
2021/08/11 11:44:43;;;;;;;9.48;6.03;;;29.90;56.60;;;;;;5093457;28;20032;-65
2021/08/11 11:47:10;;;;;;;7.88;6.40;;;30.10;56.30;;;;;;5093570;28;20035;-63
2021/08/11 11:49:38;;;;;;;11.27;7.50;;;30.00;56.70;;;;;;5093751;28;20028;-62
2021/08/11 11:52:12;;;;;;;99.40;76.43;;;29.90;56.70;;;;;;5093152;28;20039;-50
2021/08/11 11:54:48;;;;;;;203.80;153.05;;;29.80;56.80;;;;;;5093386;28;20028;-52
2021/08/11 11:57:16;;;;;;;62.80;52.20;;;30.00;56.60;;;;;;5093741;28;20059;-50
2021/08/11 11:59:47;;;;;;;53.45;42.15;;;30.00;56.10;;;;;;5095730;28;20031;-52
2021/08/11 12:02:23;;;;;;;30.08;23.88;;;30.20;56.00;;;;;;5113185;28;20039;-50
2021/08/11 12:05:04;;;;;;;14.38;8.13;;;30.30;55.20;;;;;;5113173;28;20031;-53
2021/08/11 12:07:34;;;;;;;11.02;6.43;;;30.20;54.40;;;;;;5113384;28;20027;-51
2021/08/11 12:10:03;;;;;;;12.85;9.20;;;30.20;54.60;;;;;;5112959;28;20395;-52
2021/08/11 12:12:30;;;;;;;11.73;7.50;;;30.20;54.90;;;;;;5112959;28;20055;-53
2021/08/11 12:15:21;;;;;;;10.32;7.20;;;30.20;55.10;;;;;;5113362;28;20024;-52
2021/08/11 12:17:48;;;;;;;9.40;6.75;;;30.20;54.80;;;;;;5113156;28;20063;-52
2021/08/11 12:20:24;;;;;;;8.10;6.20;;;30.20;54.40;;;;;;5113125;27;20051;-54
2021/08/11 12:22:51;;;;;;;10.18;5.75;;;30.20;53.90;;;;;;5111743;28;20039;-55
2021/08/11 12:25:25;;;;;;;13.32;8.15;;;30.30;54.00;;;;;;5111099;28;20047;-49
2021/08/11 12:28:14;;;;;;;11.60;6.43;;;30.30;54.40;;;;;;5111435;28;20047;-49
2021/08/11 12:30:52;;;;;;;10.45;6.50;;;30.30;54.50;;;;;;5108884;28;20023;-50
2021/08/11 12:33:24;;;;;;;9.75;6.00;;;30.30;54.70;;;;;;5110767;28;20487;-60
2021/08/11 12:35:52;;;;;;;7.57;6.25;;;30.30;54.70;;;;;;5111725;28;20042;-49
2021/08/11 12:38:30;;;;;;;12.90;7.38;;;30.30;54.20;;;;;;5110898;28;20095;-53
2021/08/11 12:40:58;;;;;;;8.23;6.32;;;30.30;54.40;;;;;;5111643;28;20344;-52
2021/08/11 12:43:45;;;;;;;12.02;7.40;;;30.30;54.40;;;;;;5111583;28;20035;-51
2021/08/11 12:46:12;;;;;;;11.52;6.53;;;30.20;54.30;;;;;;5108610;28;20058;-55
2021/08/11 12:48:39;;;;;;;14.20;7.45;;;30.30;54.40;;;;;;5111721;28;20050;-54
2021/08/11 12:51:19;;;;;;;10.55;6.35;;;30.40;54.20;;;;;;5110219;28;20039;-54
2021/08/11 12:54:05;;;;;;;12.52;5.93;;;30.50;54.20;;;;;;5111840;28;20044;-52
2021/08/11 12:56:32;;;;;;;16.98;6.47;;;30.60;54.40;;;;;;5112808;28;20046;-54
2021/08/11 12:59:06;;;;;;;10.82;6.32;;;30.60;54.10;;;;;;5112885;28;20050;-52